Time;durP1;ratioP1;P1;durP2;ratioP2;P2;SDS_P1;SDS_P2;PMS_P1;PMS_P2;Temp;Humidity;BMP_temperature;BMP_pressure;BME280_temperature;BME280_humidity;BME280_pressure;Samples;Min_cycle;Max_cycle;Signal;HPM_P1;HPM_P2
2023/03/27 00:00:15;;;;;;;;;;;;;;;;;;4425056;32;19933;-83
2023/03/27 00:02:40;;;;;;;;;;;;;;;;;;4424221;32;19941;-82
2023/03/27 00:05:06;;;;;;;;;;;;;;;;;;4441204;32;19994;-81
2023/03/27 00:07:34;;;;;;;;;;;;;;;;;;4444588;32;20264;-81
2023/03/27 00:10:00;;;;;;;;;;;;;;;;;;4439877;32;19936;-82
2023/03/27 00:12:25;;;;;;;;;;;;;;;;;;4425604;32;20346;-82
2023/03/27 00:14:51;;;;;;;;;;;;;;;;;;4426381;32;19937;-82
2023/03/27 00:17:16;;;;;;;;;;;;;;;;;;4425825;32;20276;-82
2023/03/27 00:19:41;;;;;;;;;;;;;;;;;;4427586;32;19932;-81
2023/03/27 00:22:06;;;;;;;;;;;;;;;;;;4428914;32;19933;-81
2023/03/27 00:24:31;;;;;;;;;;;;;;;;;;4428975;32;19985;-82
2023/03/27 00:26:57;;;;;;;;;;;;;;;;;;4432131;32;19940;-82
2023/03/27 00:29:23;;;;;;;;;;;;;;;;;;4441013;32;19952;-82
2023/03/27 00:31:48;;;;;;;;;;;;;;;;;;4439631;32;19995;-82
2023/03/27 00:34:13;;;;;;;;;;;;;;;;;;4438811;32;19941;-83
2023/03/27 00:36:39;;;;;;;;;;;;;;;;;;4425266;32;19982;-83
2023/03/27 00:39:04;;;;;;;;;;;;;;;;;;4438913;32;19992;-83
2023/03/27 00:41:29;;;;;;;;;;;;;;;;;;4424904;32;19983;-82
2023/03/27 00:43:57;;;;;;;;;;;;;;;;;;4425695;32;19929;-82
2023/03/27 00:46:23;;;;;;;;;;;;;;;;;;4424592;32;19933;-82
2023/03/27 00:48:48;;;;;;;;;;;;;;;;;;4425931;32;20310;-81
2023/03/27 00:51:13;;;;;;;;;;;;;;;;;;4426050;32;19936;-82
2023/03/27 00:53:38;;;;;;;;;;;;;;;;;;4427435;32;19945;-81
2023/03/27 00:56:03;;;;;;;;;;;;;;;;;;4426529;32;19943;-81
2023/03/27 00:58:28;;;;;;;;;;;;;;;;;;4425889;32;19994;-81
2023/03/27 01:00:53;;;;;;;;;;;;;;;;;;4440663;32;19933;-82
2023/03/27 01:03:19;;;;;;;;;;;;;;;;;;4439573;32;19945;-81
2023/03/27 01:05:44;;;;;;;;;;;;;;;;;;4422336;32;20026;-82
2023/03/27 01:08:10;;;;;;;;;;;;;;;;;;4422378;32;19937;-82
2023/03/27 01:10:36;;;;;;;;;;;;;;;;;;4423088;32;19933;-81
2023/03/27 01:13:03;;;;;;;;;;;;;;;;;;4422505;32;19932;-82
2023/03/27 01:15:29;;;;;;;;;;;;;;;;;;4422343;32;19952;-82
2023/03/27 01:17:54;;;;;;;;;;;;;;;;;;4422244;32;19934;-82
2023/03/27 01:20:19;;;;;;;;;;;;;;;;;;4422309;32;19941;-82
2023/03/27 01:22:44;;;;;;;;;;;;;;;;;;4422850;32;19989;-81
2023/03/27 01:25:10;;;;;;;;;;;;;;;;;;4422209;32;19953;-81
2023/03/27 01:27:36;;;;;;;;;;;;;;;;;;4422123;32;19956;-82
2023/03/27 01:30:01;;;;;;;;;;;;;;;;;;4422547;32;19929;-82
2023/03/27 01:32:26;;;;;;;;;;;;;;;;;;4423580;32;19948;-82
2023/03/27 01:34:53;;;;;;;;;;;;;;;;;;4429579;32;19984;-82
2023/03/27 01:37:20;;;;;;;;;;;;;;;;;;4432012;32;20348;-82
2023/03/27 01:39:45;;;;;;;;;;;;;;;;;;4432036;32;19937;-81
2023/03/27 01:42:10;;;;;;;;;;;;;;;;;;4425600;32;20020;-81
2023/03/27 01:44:36;;;;;;;;;;;;;;;;;;4422612;32;19941;-82
2023/03/27 01:47:01;;;;;;;;;;;;;;;;;;4423209;32;20059;-82
2023/03/27 01:49:26;;;;;;;;;;;;;;;;;;4438613;32;19922;-81
2023/03/27 01:51:51;;;;;;;;;;;;;;;;;;4437551;32;19934;-80
2023/03/27 01:54:16;;;;;;;;;;;;;;;;;;4434656;32;19955;-80
2023/03/27 01:56:44;;;;;;;;;;;;;;;;;;4431338;32;19944;-81
2023/03/27 01:59:10;;;;;;;;;;;;;;;;;;4426637;32;19945;-81
2023/03/27 02:01:35;;;;;;;;;;;;;;;;;;4424293;32;19952;-81
2023/03/27 02:04:01;;;;;;;;;;;;;;;;;;4422258;32;19948;-80
2023/03/27 02:06:28;;;;;;;;;;;;;;;;;;4434944;32;19988;-81
2023/03/27 02:08:53;;;;;;;;;;;;;;;;;;4438495;32;19937;-80
2023/03/27 02:11:19;;;;;;;;;;;;;;;;;;4439000;32;20339;-81
2023/03/27 02:13:44;;;;;;;;;;;;;;;;;;4424535;32;19937;-80
2023/03/27 02:16:10;;;;;;;;;;;;;;;;;;4424353;32;19989;-80
2023/03/27 02:18:35;;;;;;;;;;;;;;;;;;4438414;32;20293;-80
2023/03/27 02:21:03;;;;;;;;;;;;;;;;;;4439472;32;19936;-80
2023/03/27 02:23:30;;;;;;;;;;;;;;;;;;4425945;32;19936;-80
2023/03/27 02:25:55;;;;;;;;;;;;;;;;;;4425949;32;19932;-80
2023/03/27 02:28:21;;;;;;;;;;;;;;;;;;4424601;32;19996;-80
2023/03/27 02:30:46;;;;;;;;;;;;;;;;;;4423423;32;19929;-80
2023/03/27 02:33:13;;;;;;;;;;;;;;;;;;4425012;32;19951;-80
2023/03/27 02:35:38;;;;;;;;;;;;;;;;;;4423663;32;20354;-80
2023/03/27 02:38:03;;;;;;;;;;;;;;;;;;4423632;32;20027;-80
2023/03/27 02:40:28;;;;;;;;;;;;;;;;;;4423881;32;19976;-81
2023/03/27 02:42:54;;;;;;;;;;;;;;;;;;4432552;32;20313;-80
2023/03/27 02:45:22;;;;;;;;;;;;;;;;;;4439602;32;19936;-80
2023/03/27 02:47:47;;;;;;;;;;;;;;;;;;4424097;32;19971;-80
2023/03/27 02:50:12;;;;;;;;;;;;;;;;;;4423827;32;19936;-80
2023/03/27 02:52:37;;;;;;;;;;;;;;;;;;4423426;32;20336;-80
2023/03/27 02:55:05;;;;;;;;;;;;;;;;;;4424054;32;20337;-80
2023/03/27 02:57:30;;;;;;;;;;;;;;;;;;4423181;32;19967;-80
2023/03/27 02:59:55;;;;;;;;;;;;;;;;;;4423476;32;19937;-80
2023/03/27 03:02:20;;;;;;;;;;;;;;;;;;4437902;32;19937;-80
2023/03/27 03:04:45;;;;;;;;;;;;;;;;;;4437025;32;19950;-80
2023/03/27 03:07:12;;;;;;;;;;;;;;;;;;4437701;32;19945;-80
2023/03/27 03:09:38;;;;;;;;;;;;;;;;;;4422927;32;19977;-80
2023/03/27 03:12:03;;;;;;;;;;;;;;;;;;4423599;32;19929;-80
2023/03/27 03:14:29;;;;;;;;;;;;;;;;;;4423836;32;19982;-80
2023/03/27 03:16:54;;;;;;;;;;;;;;;;;;4423184;32;19989;-81
2023/03/27 03:19:20;;;;;;;;;;;;;;;;;;4437154;32;19937;-81
2023/03/27 03:21:48;;;;;;;;;;;;;;;;;;4436654;32;19947;-81
2023/03/27 03:24:13;;;;;;;;;;;;;;;;;;4423526;32;20255;-79
2023/03/27 03:26:38;;;;;;;;;;;;;;;;;;4437538;32;20196;-79
2023/03/27 03:29:04;;;;;;;;;;;;;;;;;;4423071;32;19962;-80
2023/03/27 03:31:41;;;;;;;;;;;;;;;;;;4438383;32;19950;-79
2023/03/27 03:34:06;;;;;;;;;;;;;;;;;;4425034;32;19976;-80
2023/03/27 03:36:31;;;;;;;;;;;;;;;;;;4423322;32;19951;-80
2023/03/27 03:38:56;;;;;;;;;;;;;;;;;;4437160;32;20000;-80
2023/03/27 03:41:22;;;;;;;;;;;;;;;;;;4422741;32;19937;-81
2023/03/27 03:43:47;;;;;;;;;;;;;;;;;;4436724;32;19932;-80
2023/03/27 03:46:12;;;;;;;;;;;;;;;;;;4423510;32;19963;-80
2023/03/27 03:48:37;;;;;;;;;;;;;;;;;;4423047;32;19936;-80
2023/03/27 03:51:02;;;;;;;;;;;;;;;;;;4426381;32;19956;-80
2023/03/27 03:53:27;;;;;;;;;;;;;;;;;;4434544;32;19936;-80
2023/03/27 03:55:52;;;;;;;;;;;;;;;;;;4448828;32;19937;-81
2023/03/27 03:58:17;;;;;;;;;;;;;;;;;;4438474;32;19965;-79
2023/03/27 04:00:43;;;;;;;;;;;;;;;;;;4446864;32;20293;-79
2023/03/27 04:03:08;;;;;;;;;;;;;;;;;;4429020;32;19976;-80
2023/03/27 04:05:33;;;;;;;;;;;;;;;;;;4444947;32;19949;-81
2023/03/27 04:07:58;;;;;;;;;;;;;;;;;;4424856;32;20023;-80
2023/03/27 04:10:24;;;;;;;;;;;;;;;;;;4439242;32;19941;-79
2023/03/27 04:12:49;;;;;;;;;;;;;;;;;;4424741;32;19973;-80
2023/03/27 04:15:15;;;;;;;;;;;;;;;;;;4423021;32;19985;-80
2023/03/27 04:17:41;;;;;;;;;;;;;;;;;;4437144;32;19955;-80
2023/03/27 04:20:06;;;;;;;;;;;;;;;;;;4436310;32;19994;-81
2023/03/27 04:22:36;;;;;;;;;;;;;;;;;;4436944;32;19976;-81
2023/03/27 04:25:02;;;;;;;;;;;;;;;;;;4422605;32;19933;-81
2023/03/27 04:27:29;;;;;;;;;;;;;;;;;;4437306;32;19980;-80
2023/03/27 04:29:55;;;;;;;;;;;;;;;;;;4436632;32;19951;-80
2023/03/27 04:32:20;;;;;;;;;;;;;;;;;;4422441;32;19933;-80
2023/03/27 04:34:45;;;;;;;;;;;;;;;;;;4436465;32;19994;-81
2023/03/27 04:37:10;;;;;;;;;;;;;;;;;;4423100;32;19932;-81
2023/03/27 04:39:41;;;;;;;;;;;;;;;;;;4437821;32;19956;-81
2023/03/27 04:42:06;;;;;;;;;;;;;;;;;;4440537;32;19951;-80
2023/03/27 04:44:33;;;;;;;;;;;;;;;;;;4427288;32;19981;-81
2023/03/27 04:47:00;;;;;;;;;;;;;;;;;;4423381;32;19984;-80
2023/03/27 04:49:25;;;;;;;;;;;;;;;;;;4422487;32;19929;-80
2023/03/27 04:51:51;;;;;;;;;;;;;;;;;;4437200;32;19970;-84
2023/03/27 04:54:16;;;;;;;;;;;;;;;;;;4423909;32;19987;-86
2023/03/27 04:56:41;;;;;;;;;;;;;;;;;;4426343;32;19981;-86
2023/03/27 04:59:06;;;;;;;;;;;;;;;;;;4437928;32;19941;-85
2023/03/27 05:01:32;;;;;;;;;;;;;;;;;;4430110;32;19940;-87
2023/03/27 05:03:57;;;;;;;;;;;;;;;;;;4423943;32;19947;-85
2023/03/27 05:06:22;;;;;;;;;;;;;;;;;;4423725;32;19933;-84
2023/03/27 05:08:47;;;;;;;;;;;;;;;;;;4422515;32;19991;-84
2023/03/27 05:11:13;;;;;;;;;;;;;;;;;;4430224;32;20308;-83
2023/03/27 05:13:38;;;;;;;;;;;;;;;;;;4436608;32;20318;-82
2023/03/27 05:16:03;;;;;;;;;;;;;;;;;;4436795;32;20248;-82
2023/03/27 05:18:29;;;;;;;;;;;;;;;;;;4422419;32;20060;-82
2023/03/27 05:20:54;;;;;;;;;;;;;;;;;;4422688;32;20329;-82
2023/03/27 05:23:20;;;;;;;;;;;;;;;;;;4422932;32;20299;-81
2023/03/27 05:25:45;;;;;;;;;;;;;;;;;;4421750;32;19956;-82
2023/03/27 05:28:11;;;;;;;;;;;;;;;;;;4437445;32;19953;-81
2023/03/27 05:30:36;;;;;;;;;;;;;;;;;;4436049;32;19974;-82
2023/03/27 05:33:02;;;;;;;;;;;;;;;;;;4423134;32;19956;-82
2023/03/27 05:35:27;;;;;;;;;;;;;;;;;;4425257;32;19941;-82
2023/03/27 05:37:52;;;;;;;;;;;;;;;;;;4438989;32;19947;-80
2023/03/27 05:40:27;;;;;;;;;;;;;;;;;;4438788;32;19941;-80
2023/03/27 05:42:52;;;;;;;;;;;;;;;;;;4438664;32;20231;-81
2023/03/27 05:45:17;;;;;;;;;;;;;;;;;;4424797;32;19968;-81
2023/03/27 05:47:42;;;;;;;;;;;;;;;;;;4424812;32;19937;-81
2023/03/27 05:50:07;;;;;;;;;;;;;;;;;;4438292;32;19994;-81
2023/03/27 05:52:33;;;;;;;;;;;;;;;;;;4424102;32;19936;-80
2023/03/27 05:54:58;;;;;;;;;;;;;;;;;;4438298;32;19980;-81
2023/03/27 05:57:23;;;;;;;;;;;;;;;;;;4424572;32;19963;-81
2023/03/27 05:59:48;;;;;;;;;;;;;;;;;;4424328;32;19955;-80
2023/03/27 06:02:17;;;;;;;;;;;;;;;;;;4426607;32;19951;-82
2023/03/27 06:04:43;;;;;;;;;;;;;;;;;;4438333;32;19933;-81
2023/03/27 06:07:09;;;;;;;;;;;;;;;;;;4450672;32;20008;-81
2023/03/27 06:09:35;;;;;;;;;;;;;;;;;;4451701;32;19928;-81
2023/03/27 06:12:00;;;;;;;;;;;;;;;;;;4441540;32;19941;-81
2023/03/27 06:14:25;;;;;;;;;;;;;;;;;;4440216;32;19993;-80
2023/03/27 06:16:50;;;;;;;;;;;;;;;;;;4444072;32;19941;-80
2023/03/27 06:19:15;;;;;;;;;;;;;;;;;;4442541;32;19945;-81
2023/03/27 06:21:42;;;;;;;;;;;;;;;;;;4446907;32;19945;-80
2023/03/27 06:24:07;;;;;;;;;;;;;;;;;;4445461;32;19936;-82
2023/03/27 06:26:33;;;;;;;;;;;;;;;;;;4449719;32;19933;-80
2023/03/27 06:28:59;;;;;;;;;;;;;;;;;;4447125;32;20016;-81
2023/03/27 06:31:24;;;;;;;;;;;;;;;;;;4440648;32;19937;-82
2023/03/27 06:33:49;;;;;;;;;;;;;;;;;;4423118;32;20062;-83
2023/03/27 06:36:14;;;;;;;;;;;;;;;;;;4423538;32;19937;-81
2023/03/27 06:38:41;;;;;;;;;;;;;;;;;;4421838;32;20227;-80
2023/03/27 06:41:06;;;;;;;;;;;;;;;;;;4421663;32;19937;-82
2023/03/27 06:43:31;;;;;;;;;;;;;;;;;;4422513;32;19951;-84
2023/03/27 06:45:56;;;;;;;;;;;;;;;;;;4428456;32;19981;-83
2023/03/27 06:48:23;;;;;;;;;;;;;;;;;;4425131;32;19936;-82
2023/03/27 06:50:48;;;;;;;;;;;;;;;;;;4423869;32;19950;-82
2023/03/27 06:53:15;;;;;;;;;;;;;;;;;;4422293;32;19937;-85
2023/03/27 06:55:40;;;;;;;;;;;;;;;;;;4421986;32;19944;-84
2023/03/27 06:58:05;;;;;;;;;;;;;;;;;;4422906;32;19930;-84
2023/03/27 07:00:31;;;;;;;;;;;;;;;;;;4426258;32;19941;-82
2023/03/27 07:02:56;;;;;;;;;;;;;;;;;;4429667;32;19936;-82
2023/03/27 07:05:21;;;;;;;;;;;;;;;;;;4434370;32;19941;-81
2023/03/27 07:07:46;;;;;;;;;;;;;;;;;;4426584;32;19948;-82
2023/03/27 07:10:11;;;;;;;;;;;;;;;;;;4421480;32;19997;-82
2023/03/27 07:12:37;;;;;;;;;;;;;;;;;;4422185;32;19934;-83
2023/03/27 07:15:04;;;;;;;;;;;;;;;;;;4422915;32;19947;-81
2023/03/27 07:17:30;;;;;;;;;;;;;;;;;;4420435;32;19975;-81
2023/03/27 07:19:55;;;;;;;;;;;;;;;;;;4426276;32;19953;-81
2023/03/27 07:22:20;;;;;;;;;;;;;;;;;;4424180;32;20241;-81
2023/03/27 07:24:45;;;;;;;;;;;;;;;;;;4423163;32;19936;-81
2023/03/27 07:27:10;;;;;;;;;;;;;;;;;;4424324;32;19973;-81
2023/03/27 07:29:36;;;;;;;;;;;;;;;;;;4439165;32;19995;-79
2023/03/27 07:32:01;;;;;;;;;;;;;;;;;;4429540;32;19937;-81
2023/03/27 07:34:26;;;;;;;;;;;;;;;;;;4428756;32;19937;-79
2023/03/27 07:36:52;;;;;;;;;;;;;;;;;;4425758;32;19966;-80
2023/03/27 07:39:17;;;;;;;;;;;;;;;;;;4424662;32;19940;-79
2023/03/27 07:41:42;;;;;;;;;;;;;;;;;;4423990;32;19937;-81
2023/03/27 07:44:07;;;;;;;;;;;;;;;;;;4422842;32;19949;-81
2023/03/27 07:46:32;;;;;;;;;;;;;;;;;;4422768;32;19937;-82
2023/03/27 07:48:57;;;;;;;;;;;;;;;;;;4422778;32;19945;-83
2023/03/27 07:51:22;;;;;;;;;;;;;;;;;;4423876;32;19941;-82
2023/03/27 07:53:52;;;;;;;;;;;;;;;;;;4423905;32;20302;-83
2023/03/27 07:56:18;;;;;;;;;;;;;;;;;;4422692;32;19953;-83
2023/03/27 07:58:43;;;;;;;;;;;;;;;;;;4424221;32;20261;-83
2023/03/27 08:01:08;;;;;;;;;;;;;;;;;;4426358;32;19976;-84
2023/03/27 08:03:33;;;;;;;;;;;;;;;;;;4424218;32;19937;-84
2023/03/27 08:05:58;;;;;;;;;;;;;;;;;;4437149;32;20015;-83
2023/03/27 08:08:23;;;;;;;;;;;;;;;;;;4437187;32;20306;-83
2023/03/27 08:10:49;;;;;;;;;;;;;;;;;;4423189;32;19964;-83
2023/03/27 08:13:14;;;;;;;;;;;;;;;;;;4438105;32;20000;-83
2023/03/27 08:15:40;;;;;;;;;;;;;;;;;;4432396;32;20346;-82
2023/03/27 08:18:05;;;;;;;;;;;;;;;;;;4439879;32;19932;-81
2023/03/27 08:20:30;;;;;;;;;;;;;;;;;;4447095;32;19937;-83
2023/03/27 08:22:57;;;;;;;;;;;;;;;;;;4440009;32;19937;-83
2023/03/27 08:25:22;;;;;;;;;;;;;;;;;;4424694;32;19937;-82
2023/03/27 08:27:47;;;;;;;;;;;;;;;;;;4426205;32;19932;-81
2023/03/27 08:30:13;;;;;;;;;;;;;;;;;;4427701;32;19991;-82
2023/03/27 08:32:38;;;;;;;;;;;;;;;;;;4423791;32;19932;-81
2023/03/27 08:35:04;;;;;;;;;;;;;;;;;;4438427;32;20002;-82
2023/03/27 08:37:29;;;;;;;;;;;;;;;;;;4424233;32;19974;-83
2023/03/27 08:39:57;;;;;;;;;;;;;;;;;;4437993;32;19933;-83
2023/03/27 08:42:22;;;;;;;;;;;;;;;;;;4423317;32;20312;-82
2023/03/27 08:44:47;;;;;;;;;;;;;;;;;;4422811;32;20403;-83
2023/03/27 08:47:12;;;;;;;;;;;;;;;;;;4437056;32;19932;-82
2023/03/27 08:49:38;;;;;;;;;;;;;;;;;;4424404;32;19952;-82
2023/03/27 08:52:04;;;;;;;;;;;;;;;;;;4434703;32;19931;-82
2023/03/27 08:54:30;;;;;;;;;;;;;;;;;;4433181;32;19979;-83
2023/03/27 08:56:55;;;;;;;;;;;;;;;;;;4423432;32;19947;-82
2023/03/27 08:59:20;;;;;;;;;;;;;;;;;;4437248;32;19933;-82
2023/03/27 09:01:45;;;;;;;;;;;;;;;;;;4424470;32;19933;-82
2023/03/27 09:04:11;;;;;;;;;;;;;;;;;;4424009;32;19996;-82
2023/03/27 09:06:38;;;;;;;;;;;;;;;;;;4437039;32;20333;-81
2023/03/27 09:09:05;;;;;;;;;;;;;;;;;;4425617;32;20347;-82
2023/03/27 09:11:30;;;;;;;;;;;;;;;;;;4425431;32;19933;-81
2023/03/27 09:13:55;;;;;;;;;;;;;;;;;;4425246;32;19936;-80
2023/03/27 09:16:20;;;;;;;;;;;;;;;;;;4439895;32;19948;-82
2023/03/27 09:18:47;;;;;;;;;;;;;;;;;;4425239;32;19947;-82
2023/03/27 09:21:12;;;;;;;;;;;;;;;;;;4425264;32;19970;-81
2023/03/27 09:23:38;;;;;;;;;;;;;;;;;;4439569;32;19956;-81
2023/03/27 09:26:05;;;;;;;;;;;;;;;;;;4425344;32;19933;-81
2023/03/27 09:28:30;;;;;;;;;;;;;;;;;;4439754;32;19994;-80
2023/03/27 09:30:56;;;;;;;;;;;;;;;;;;4428409;32;19952;-81
2023/03/27 09:33:23;;;;;;;;;;;;;;;;;;4427809;32;19936;-81
2023/03/27 09:35:48;;;;;;;;;;;;;;;;;;4428525;32;19929;-82
2023/03/27 09:38:13;;;;;;;;;;;;;;;;;;4427768;32;19977;-81
2023/03/27 09:40:39;;;;;;;;;;;;;;;;;;4425903;32;19968;-81
2023/03/27 09:43:07;;;;;;;;;;;;;;;;;;4427823;32;19943;-84
2023/03/27 09:45:32;;;;;;;;;;;;;;;;;;4425907;32;20020;-83
2023/03/27 09:47:57;;;;;;;;;;;;;;;;;;4425756;32;19943;-83
2023/03/27 09:50:23;;;;;;;;;;;;;;;;;;4425227;32;20340;-83
2023/03/27 09:52:51;;;;;;;;;;;;;;;;;;4425177;32;19964;-84
2023/03/27 09:55:17;;;;;;;;;;;;;;;;;;4441790;32;19937;-84
2023/03/27 09:57:42;;;;;;;;;;;;;;;;;;4428498;32;19986;-82
2023/03/27 10:00:13;;;;;;;;;;;;;;;;;;4439976;32;19940;-83
2023/03/27 10:02:38;;;;;;;;;;;;;;;;;;4425094;32;19943;-82
2023/03/27 10:05:10;;;;;;;;;;;;;;;;;;4440602;32;19948;-82
2023/03/27 10:07:35;;;;;;;;;;;;;;;;;;4445879;32;19933;-82
2023/03/27 10:10:00;;;;;;;;;;;;;;;;;;4445816;32;19996;-81
2023/03/27 10:12:26;;;;;;;;;;;;;;;;;;4451431;32;19937;-82
2023/03/27 10:14:51;;;;;;;;;;;;;;;;;;4428139;32;20274;-82
2023/03/27 10:17:16;;;;;;;;;;;;;;;;;;4430351;32;19957;-81
2023/03/27 10:19:41;;;;;;;;;;;;;;;;;;4446817;32;19952;-82
2023/03/27 10:22:06;;;;;;;;;;;;;;;;;;4438752;32;19933;-82
2023/03/27 10:24:38;;;;;;;;;;;;;;;;;;4440078;32;19983;-82
2023/03/27 10:27:03;;;;;;;;;;;;;;;;;;4439107;32;19969;-82
2023/03/27 10:29:28;;;;;;;;;;;;;;;;;;4436069;32;19933;-81
2023/03/27 10:31:53;;;;;;;;;;;;;;;;;;4444308;32;19953;-83
2023/03/27 10:34:18;;;;;;;;;;;;;;;;;;4440323;32;20367;-82
2023/03/27 10:36:43;;;;;;;;;;;;;;;;;;4424395;32;19932;-81
2023/03/27 10:39:09;;;;;;;;;;;;;;;;;;4424270;32;20054;-82
2023/03/27 10:41:35;;;;;;;;;;;;;;;;;;4424136;32;19929;-81
2023/03/27 10:44:01;;;;;;;;;;;;;;;;;;4439131;32;19941;-79
2023/03/27 10:46:26;;;;;;;;;;;;;;;;;;4437912;32;19933;-81
2023/03/27 10:48:51;;;;;;;;;;;;;;;;;;4424478;32;20366;-81
2023/03/27 10:51:16;;;;;;;;;;;;;;;;;;4438582;32;19941;-82
2023/03/27 10:53:41;;;;;;;;;;;;;;;;;;4423896;32;19933;-82
2023/03/27 10:56:07;;;;;;;;;;;;;;;;;;4433824;32;19985;-84
2023/03/27 10:58:33;;;;;;;;;;;;;;;;;;4442488;32;19948;-81
2023/03/27 11:00:58;;;;;;;;;;;;;;;;;;4418250;32;19987;-82
2023/03/27 11:03:24;;;;;;;;;;;;;;;;;;4422008;32;19968;-82
2023/03/27 11:05:52;;;;;;;;;;;;;;;;;;4436017;32;20020;-81
2023/03/27 11:08:18;;;;;;;;;;;;;;;;;;4417570;32;19951;-82
2023/03/27 11:10:44;;;;;;;;;;;;;;;;;;4437548;32;19985;-81
2023/03/27 11:13:09;;;;;;;;;;;;;;;;;;4423649;32;19992;-83
2023/03/27 11:15:35;;;;;;;;;;;;;;;;;;4426006;32;19969;-84
2023/03/27 11:18:00;;;;;;;;;;;;;;;;;;4424902;32;20001;-86
2023/03/27 11:20:26;;;;;;;;;;;;;;;;;;4428525;32;19941;-86
2023/03/27 11:22:51;;;;;;;;;;;;;;;;;;4437381;32;20309;-88
2023/03/27 11:25:18;;;;;;;;;;;;;;;;;;4436883;32;19979;-86
2023/03/27 11:27:47;;;;;;;;;;;;;;;;;;4426621;32;19940;-86
2023/03/27 11:30:13;;;;;;;;;;;;;;;;;;4426048;32;20338;-84
2023/03/27 11:32:38;;;;;;;;;;;;;;;;;;4426643;32;20318;-85
2023/03/27 11:35:05;;;;;;;;;;;;;;;;;;4427628;32;20263;-83
2023/03/27 11:37:30;;;;;;;;;;;;;;;;;;4427624;32;19964;-84
2023/03/27 11:39:55;;;;;;;;;;;;;;;;;;4428620;32;19937;-85
2023/03/27 11:42:21;;;;;;;;;;;;;;;;;;4428413;32;19918;-85
2023/03/27 11:44:48;;;;;;;;;;;;;;;;;;4427653;32;19987;-85
2023/03/27 11:47:13;;;;;;;;;;;;;;;;;;4428854;32;19929;-85
2023/03/27 11:49:38;;;;;;;;;;;;;;;;;;4428491;32;19944;-84
2023/03/27 11:52:04;;;;;;;;;;;;;;;;;;4430059;32;20339;-85
2023/03/27 11:54:31;;;;;;;;;;;;;;;;;;4429603;32;19983;-85
2023/03/27 11:56:56;;;;;;;;;;;;;;;;;;4443009;32;20005;-85
2023/03/27 11:59:21;;;;;;;;;;;;;;;;;;4428482;32;19937;-85
2023/03/27 12:01:46;;;;;;;;;;;;;;;;;;4446564;32;19937;-86
2023/03/27 12:04:12;;;;;;;;;;;;;;;;;;4437262;32;20052;-85
2023/03/27 12:06:37;;;;;;;;;;;;;;;;;;4435329;32;19951;-83
2023/03/27 12:09:02;;;;;;;;;;;;;;;;;;4447860;32;19932;-84
2023/03/27 12:11:27;;;;;;;;;;;;;;;;;;4435490;32;19937;-84
2023/03/27 12:13:54;;;;;;;;;;;;;;;;;;4430389;32;19937;-83
2023/03/27 12:16:19;;;;;;;;;;;;;;;;;;4429172;32;20013;-85
2023/03/27 12:18:44;;;;;;;;;;;;;;;;;;4429274;32;20309;-86
2023/03/27 12:21:12;;;;;;;;;;;;;;;;;;4443824;32;19949;-86
2023/03/27 12:23:38;;;;;;;;;;;;;;;;;;4430780;32;19997;-85
2023/03/27 12:26:03;;;;;;;;;;;;;;;;;;4428868;32;19936;-83
2023/03/27 12:28:29;;;;;;;;;;;;;;;;;;4444353;32;19945;-83
2023/03/27 12:30:55;;;;;;;;;;;;;;;;;;4427567;32;20312;-84
2023/03/27 12:33:20;;;;;;;;;;;;;;;;;;4433946;32;19972;-85
2023/03/27 12:35:45;;;;;;;;;;;;;;;;;;4435691;32;19936;-83
2023/03/27 12:38:10;;;;;;;;;;;;;;;;;;4436674;32;19944;-83
2023/03/27 12:40:36;;;;;;;;;;;;;;;;;;4435443;32;19929;-83
2023/03/27 12:43:01;;;;;;;;;;;;;;;;;;4430756;32;19932;-83
2023/03/27 12:45:26;;;;;;;;;;;;;;;;;;4430735;32;19941;-83
2023/03/27 12:47:51;;;;;;;;;;;;;;;;;;4429662;32;19973;-83
2023/03/27 12:50:17;;;;;;;;;;;;;;;;;;4429862;32;19937;-85
2023/03/27 12:52:43;;;;;;;;;;;;;;;;;;4446879;32;19940;-84
2023/03/27 12:55:08;;;;;;;;;;;;;;;;;;4432629;32;20294;-84
2023/03/27 12:57:33;;;;;;;;;;;;;;;;;;4445740;32;19933;-83
2023/03/27 12:59:58;;;;;;;;;;;;;;;;;;4433124;32;19952;-84
2023/03/27 13:02:23;;;;;;;;;;;;;;;;;;4434063;32;19954;-83
2023/03/27 13:04:48;;;;;;;;;;;;;;;;;;4435847;32;19968;-83
2023/03/27 13:07:13;;;;;;;;;;;;;;;;;;4438570;32;19936;-84
2023/03/27 13:09:41;;;;;;;;;;;;;;;;;;4439589;32;19990;-86
2023/03/27 13:12:06;;;;;;;;;;;;;;;;;;4439302;32;19968;-84
2023/03/27 13:14:31;;;;;;;;;;;;;;;;;;4438064;32;19947;-84
2023/03/27 13:16:56;;;;;;;;;;;;;;;;;;4451874;32;19941;-86
2023/03/27 13:19:21;;;;;;;;;;;;;;;;;;4436359;32;19932;-85
2023/03/27 13:21:47;;;;;;;;;;;;;;;;;;4448742;32;19951;-86
2023/03/27 13:24:12;;;;;;;;;;;;;;;;;;4434010;32;19964;-86
2023/03/27 13:26:37;;;;;;;;;;;;;;;;;;4432501;32;19974;-82
2023/03/27 13:29:03;;;;;;;;;;;;;;;;;;4431971;32;19936;-88
2023/03/27 13:31:28;;;;;;;;;;;;;;;;;;4432839;32;19985;-85
2023/03/27 13:33:53;;;;;;;;;;;;;;;;;;4429580;32;19984;-87
2023/03/27 13:36:19;;;;;;;;;;;;;;;;;;4430081;32;19929;-86
2023/03/27 13:38:44;;;;;;;;;;;;;;;;;;4442415;32;20284;-85
2023/03/27 13:41:09;;;;;;;;;;;;;;;;;;4428214;32;19948;-84
2023/03/27 13:43:35;;;;;;;;;;;;;;;;;;4442350;32;19980;-84
2023/03/27 13:46:00;;;;;;;;;;;;;;;;;;4432519;32;20008;-85
2023/03/27 13:48:25;;;;;;;;;;;;;;;;;;4438111;32;19932;-85
2023/03/27 13:50:50;;;;;;;;;;;;;;;;;;4435549;32;19988;-86
2023/03/27 13:53:17;;;;;;;;;;;;;;;;;;4446865;32;20297;-86
2023/03/27 13:55:42;;;;;;;;;;;;;;;;;;4429970;32;20015;-87
2023/03/27 13:58:08;;;;;;;;;;;;;;;;;;4441809;32;19944;-86
2023/03/27 14:00:33;;;;;;;;;;;;;;;;;;4427143;32;19984;-86
2023/03/27 14:02:58;;;;;;;;;;;;;;;;;;4418453;32;19941;-86
2023/03/27 14:05:23;;;;;;;;;;;;;;;;;;4412664;32;19941;-77
2023/03/27 14:07:48;;;;;;;;;;;;;;;;;;4411077;32;19964;-83
2023/03/27 14:10:15;;;;;;;;;;;;;;;;;;4414595;32;19948;-87
2023/03/27 14:12:40;;;;;;;;;;;;;;;;;;4415036;32;19983;-87
2023/03/27 14:15:06;;;;;;;;;;;;;;;;;;4426456;32;19944;-87
2023/03/27 14:17:31;;;;;;;;;;;;;;;;;;4438307;32;19941;-88
2023/03/27 14:19:56;;;;;;;;;;;;;;;;;;4413806;32;19945;-87
2023/03/27 14:22:22;;;;;;;;;;;;;;;;;;4426515;32;19937;-87
2023/03/27 14:24:47;;;;;;;;;;;;;;;;;;4412161;32;19966;-88
2023/03/27 14:27:12;;;;;;;;;;;;;;;;;;4418838;32;19937;-87
2023/03/27 14:29:39;;;;;;;;;;;;;;;;;;4428710;32;20330;-86
2023/03/27 14:32:04;;;;;;;;;;;;;;;;;;4442128;32;19969;-87
2023/03/27 14:34:33;;;;;;;;;;;;;;;;;;4428016;32;19972;-86
2023/03/27 14:36:58;;;;;;;;;;;;;;;;;;4426802;32;19930;-86
2023/03/27 14:39:23;;;;;;;;;;;;;;;;;;4426799;32;20004;-87
2023/03/27 14:41:48;;;;;;;;;;;;;;;;;;4421682;32;19955;-86
2023/03/27 14:44:14;;;;;;;;;;;;;;;;;;4425150;32;19937;-86
2023/03/27 14:46:40;;;;;;;;;;;;;;;;;;4417549;32;19973;-86
2023/03/27 14:49:07;;;;;;;;;;;;;;;;;;4426575;32;20079;-87
2023/03/27 14:51:33;;;;;;;;;;;;;;;;;;4432373;32;19957;-87
2023/03/27 14:54:00;;;;;;;;;;;;;;;;;;4428871;32;19932;-86
2023/03/27 14:56:25;;;;;;;;;;;;;;;;;;4413747;32;19975;-85
2023/03/27 14:58:50;;;;;;;;;;;;;;;;;;4431648;32;20338;-85
2023/03/27 15:01:16;;;;;;;;;;;;;;;;;;4427613;32;19936;-87
2023/03/27 15:03:42;;;;;;;;;;;;;;;;;;4424233;32;19948;-88
2023/03/27 15:06:07;;;;;;;;;;;;;;;;;;4425540;32;19941;-86
2023/03/27 15:08:33;;;;;;;;;;;;;;;;;;4417343;32;19929;-86
2023/03/27 15:10:58;;;;;;;;;;;;;;;;;;4415262;32;19966;-85
2023/03/27 15:13:24;;;;;;;;;;;;;;;;;;4410966;32;19937;-87
2023/03/27 15:15:49;;;;;;;;;;;;;;;;;;4410610;32;20374;-84
2023/03/27 15:18:15;;;;;;;;;;;;;;;;;;4410065;32;20281;-85
2023/03/27 15:20:41;;;;;;;;;;;;;;;;;;4410498;32;19929;-86
2023/03/27 15:23:08;;;;;;;;;;;;;;;;;;4410142;32;19941;-86
2023/03/27 15:25:33;;;;;;;;;;;;;;;;;;4410207;32;19937;-86
2023/03/27 15:27:58;;;;;;;;;;;;;;;;;;4409808;32;19936;-86
2023/03/27 15:30:24;;;;;;;;;;;;;;;;;;4410442;32;19941;-85
2023/03/27 15:32:51;;;;;;;;;;;;;;;;;;4423245;32;19968;-85
2023/03/27 15:35:16;;;;;;;;;;;;;;;;;;4424430;32;19940;-85
2023/03/27 15:37:41;;;;;;;;;;;;;;;;;;4410717;32;19971;-85
2023/03/27 15:40:08;;;;;;;;;;;;;;;;;;4423797;32;19951;-86
2023/03/27 15:42:36;;;;;;;;;;;;;;;;;;4424627;32;19940;-86
2023/03/27 15:45:03;;;;;;;;;;;;;;;;;;4439495;32;19956;-86
2023/03/27 15:47:30;;;;;;;;;;;;;;;;;;4424915;32;19941;-85
2023/03/27 15:49:55;;;;;;;;;;;;;;;;;;4424771;32;19929;-85
2023/03/27 15:52:20;;;;;;;;;;;;;;;;;;4425458;32;19988;-85
2023/03/27 15:54:45;;;;;;;;;;;;;;;;;;4424786;32;20254;-85
2023/03/27 15:57:14;;;;;;;;;;;;;;;;;;4417228;32;19941;-85
2023/03/27 15:59:39;;;;;;;;;;;;;;;;;;4415535;32;19933;-85
2023/03/27 16:02:06;;;;;;;;;;;;;;;;;;4423739;32;19917;-85
2023/03/27 16:04:31;;;;;;;;;;;;;;;;;;4420878;32;19934;-87
2023/03/27 16:06:56;;;;;;;;;;;;;;;;;;4433839;32;19955;-85
2023/03/27 16:09:22;;;;;;;;;;;;;;;;;;4430656;32;19945;-85
2023/03/27 16:11:47;;;;;;;;;;;;;;;;;;4427795;32;19929;-85
2023/03/27 16:14:12;;;;;;;;;;;;;;;;;;4426328;32;19941;-82
2023/03/27 16:16:39;;;;;;;;;;;;;;;;;;4426807;32;19969;-86
2023/03/27 16:19:04;;;;;;;;;;;;;;;;;;4439795;32;19952;-85
2023/03/27 16:21:29;;;;;;;;;;;;;;;;;;4416724;32;19977;-82
2023/03/27 16:23:55;;;;;;;;;;;;;;;;;;4414805;32;19945;-84
2023/03/27 16:26:20;;;;;;;;;;;;;;;;;;4414926;32;19972;-84
2023/03/27 16:28:45;;;;;;;;;;;;;;;;;;4422165;32;19937;-82
2023/03/27 16:31:11;;;;;;;;;;;;;;;;;;4422610;32;19936;-84
2023/03/27 16:33:37;;;;;;;;;;;;;;;;;;4425565;32;19941;-84